Time;durP1;ratioP1;P1;durP2;ratioP2;P2;SDS_P1;SDS_P2;PMS_P1;PMS_P2;Temp;Humidity;BMP_temperature;BMP_pressure;BME280_temperature;BME280_humidity;BME280_pressure;Samples;Min_cycle;Max_cycle;Signal;HPM_P1;HPM_P2
2024/02/05 00:01:19;;;;;;;18.90;12.48;;;;;;;6.76;48.70;94077.53;5015479;28;20426;-73
2024/02/05 00:03:45;;;;;;;17.63;12.55;;;;;;;6.45;50.54;94104.59;5014681;28;20415;-73
2024/02/05 00:06:14;;;;;;;19.40;12.05;;;;;;;6.77;49.75;94108.19;5026642;28;20041;-73
2024/02/05 00:08:39;;;;;;;21.25;13.40;;;;;;;5.82;52.46;94107.25;5039716;28;20076;-72
2024/02/05 00:11:05;;;;;;;19.13;12.18;;;;;;;6.41;50.46;94078.72;5034367;28;20232;-72
2024/02/05 00:13:32;;;;;;;17.20;11.73;;;;;;;6.89;49.49;94080.59;5033931;28;20082;-72
2024/02/05 00:15:57;;;;;;;18.30;12.45;;;;;;;6.84;49.58;94076.16;5038047;28;20436;-72
2024/02/05 00:18:24;;;;;;;17.85;10.77;;;;;;;6.55;50.65;94081.50;5038756;28;20055;-73
2024/02/05 00:20:50;;;;;;;18.23;12.07;;;;;;;6.84;49.87;94074.28;5035862;28;20033;-72
2024/02/05 00:23:16;;;;;;;16.15;11.07;;;;;;;6.83;49.69;94078.00;5039038;28;20037;-73
2024/02/05 00:25:42;;;;;;;16.63;11.02;;;;;;;7.06;49.31;94071.09;5037669;28;20125;-73
2024/02/05 00:28:08;;;;;;;16.98;10.05;;;;;;;7.06;49.24;94057.88;5038385;28;20485;-73
2024/02/05 00:30:33;;;;;;;14.98;9.95;;;;;;;7.05;48.96;94085.38;5035782;28;20584;-73
2024/02/05 00:32:59;;;;;;;13.98;10.32;;;;;;;6.89;49.26;94091.16;5037650;28;20068;-73
2024/02/05 00:35:24;;;;;;;16.27;10.07;;;;;;;7.09;48.68;94085.63;5037019;28;20052;-72
2024/02/05 00:37:50;;;;;;;14.13;9.40;;;;;;;7.33;47.54;94059.91;5035106;28;20553;-72
2024/02/05 00:40:16;;;;;;;12.05;9.40;;;;;;;7.75;46.95;94066.19;5039013;28;20086;-73
2024/02/05 00:42:43;;;;;;;14.15;9.07;;;;;;;7.65;46.69;94057.28;5033902;28;20040;-73
2024/02/05 00:45:09;;;;;;;13.98;8.63;;;;;;;7.53;46.81;94054.28;5035340;28;20040;-73
2024/02/05 00:47:34;;;;;;;13.18;7.65;;;;;;;7.59;46.93;94055.78;5038483;28;20536;-72
2024/02/05 00:50:00;;;;;;;8.98;6.35;;;;;;;7.72;46.39;94043.72;5036431;28;20041;-72
2024/02/05 00:52:27;;;;;;;8.13;5.75;;;;;;;7.67;46.50;94054.38;5037322;28;20047;-72
2024/02/05 00:54:53;;;;;;;9.18;6.57;;;;;;;7.34;46.96;94050.13;5036173;28;20037;-73
2024/02/05 00:57:19;;;;;;;9.70;6.13;;;;;;;7.42;46.71;94041.50;5038757;28;20064;-73
2024/02/05 00:59:45;;;;;;;8.98;5.72;;;;;;;7.49;46.70;94039.28;5035303;28;20044;-73
2024/02/05 01:02:10;;;;;;;9.45;5.78;;;;;;;7.73;45.78;94027.53;5036037;28;20086;-73
2024/02/05 01:04:37;;;;;;;9.00;5.80;;;;;;;7.69;45.56;94020.44;5035303;28;20055;-73
2024/02/05 01:07:03;;;;;;;13.85;6.65;;;;;;;6.88;47.65;94042.00;5034006;28;20543;-73
2024/02/05 01:09:29;;;;;;;12.00;7.68;;;;;;;6.80;47.45;94035.47;5037899;28;20110;-73
2024/02/05 01:11:54;;;;;;;13.05;8.00;;;;;;;6.85;48.40;94059.19;5035637;28;20489;-73
2024/02/05 01:14:20;;;;;;;12.52;7.20;;;;;;;7.03;48.11;94031.22;5037845;28;20083;-73
2024/02/05 01:16:46;;;;;;;9.45;6.63;;;;;;;6.80;48.75;94025.69;5033231;28;20043;-71
2024/02/05 01:19:12;;;;;;;11.13;6.30;;;;;;;6.42;49.73;94040.66;5034221;28;20025;-73
2024/02/05 01:21:37;;;;;;;10.50;7.05;;;;;;;5.68;51.58;94027.88;5037045;28;20103;-72
2024/02/05 01:24:03;;;;;;;12.60;6.72;;;;;;;5.07;53.02;93993.28;5036060;28;20035;-73
2024/02/05 01:26:28;;;;;;;10.25;6.53;;;;;;;4.39;56.27;94029.97;5033639;28;20540;-73
2024/02/05 01:28:54;;;;;;;8.50;6.60;;;;;;;4.76;55.75;94028.75;5035935;28;20028;-72
2024/02/05 01:31:19;;;;;;;10.38;7.10;;;;;;;3.84;58.46;94055.34;5034977;28;20060;-73
2024/02/05 01:33:46;;;;;;;13.52;9.35;;;;;;;3.29;61.46;94011.44;5036369;28;20045;-73
2024/02/05 01:36:11;;;;;;;12.30;8.68;;;;;;;3.92;59.15;93990.84;5035534;28;20383;-73
2024/02/05 01:38:37;;;;;;;10.40;8.25;;;;;;;4.05;59.18;94003.47;5032041;28;20413;-73
2024/02/05 01:41:02;;;;;;;16.23;8.65;;;;;;;4.05;59.04;93976.34;5032730;28;20660;-73
2024/02/05 01:43:28;;;;;;;10.85;7.55;;;;;;;4.35;58.65;93988.66;5008678;28;20267;-73
2024/02/05 01:45:53;;;;;;;10.02;7.05;;;;;;;3.67;60.57;93980.41;5034758;28;20410;-72
2024/02/05 01:48:22;;;;;;;9.48;6.65;;;;;;;4.33;59.16;94001.28;5036689;28;20083;-73
2024/02/05 01:50:50;;;;;;;9.68;7.68;;;;;;;4.24;59.23;93999.19;5036841;28;20050;-73
2024/02/05 01:53:16;;;;;;;13.70;8.25;;;;;;;3.72;59.57;93910.13;5037559;28;20049;-73
2024/02/05 01:55:43;;;;;;;12.10;7.35;;;;;;;4.52;58.45;93984.63;5035089;28;20104;-73
2024/02/05 01:58:10;;;;;;;11.25;8.50;;;;;;;3.45;62.02;93945.69;5037904;28;20033;-72
2024/02/05 02:00:36;;;;;;;13.38;7.38;;;;;;;3.19;64.23;93972.00;5037370;28;20036;-71
2024/02/05 02:03:02;;;;;;;11.27;7.03;;;;;;;3.32;62.88;93942.56;5035560;28;20253;-72
2024/02/05 02:05:29;;;;;;;11.07;7.20;;;;;;;2.99;65.36;93979.88;5030640;28;20509;-72
2024/02/05 02:07:55;;;;;;;10.75;8.30;;;;;;;3.21;64.24;93962.03;5034751;28;20110;-73
2024/02/05 02:10:20;;;;;;;13.25;8.57;;;;;;;2.53;67.65;93942.25;5012896;28;20069;-73
2024/02/05 02:12:47;;;;;;;11.82;8.10;;;;;;;3.16;66.37;93940.19;5010334;28;20146;-73
2024/02/05 02:15:12;;;;;;;10.73;7.75;;;;;;;3.62;63.44;93975.94;5012188;28;20056;-73
2024/02/05 02:17:43;;;;;;;12.75;8.45;;;;;;;3.73;62.59;93919.59;5019951;28;20056;-73
2024/02/05 02:20:10;;;;;;;14.02;8.27;;;;;;;3.82;62.27;93943.50;5035522;28;20749;-73
2024/02/05 02:22:57;;;;;;;11.15;8.98;;;;;;;3.24;64.19;93934.41;5038678;28;20057;-72
2024/02/05 02:25:23;;;;;;;11.50;9.02;;;;;;;3.04;66.76;93960.72;5033387;28;20698;-71
2024/02/05 02:27:49;;;;;;;13.02;9.00;;;;;;;2.83;67.64;93921.28;5036459;28;20044;-74
2024/02/05 02:30:18;;;;;;;19.88;9.57;;;;;;;3.24;65.38;93965.94;5036597;28;20207;-73
2024/02/05 02:32:49;;;;;;;13.05;8.77;;;;;;;2.48;68.12;93943.03;5035250;28;20494;-72
2024/02/05 02:35:24;;;;;;;13.20;8.98;;;;;;;2.39;69.26;93917.53;5036539;28;20354;-72
2024/02/05 02:38:07;;;;;;;15.10;9.02;;;;;;;2.57;68.99;93937.25;5035473;28;20053;-72
2024/02/05 02:40:34;;;;;;;15.35;8.63;;;;;;;2.97;66.77;93924.19;5037769;28;20029;-72
2024/02/05 02:43:05;;;;;;;13.98;9.38;;;;;;;3.03;65.69;93891.59;5038958;28;20600;-72
2024/02/05 02:45:32;;;;;;;13.38;8.73;;;;;;;2.62;68.04;93916.25;5040526;28;20048;-73
2024/02/05 02:47:58;;;;;;;10.05;7.05;;;;;;;2.84;66.23;93885.31;5038786;28;20098;-72
2024/02/05 02:50:24;;;;;;;8.70;6.57;;;;;;;2.85;66.68;93868.47;5033658;28;20053;-72
2024/02/05 02:52:49;;;;;;;17.00;8.35;;;;;;;3.09;65.48;93858.19;5020381;28;20398;-72
2024/02/05 02:55:15;;;;;;;15.70;9.95;;;;;;;3.33;64.69;93923.09;5039317;28;20065;-72
2024/02/05 02:57:40;;;;;;;14.02;9.10;;;;;;;2.96;66.18;93898.94;5016566;28;20137;-72
2024/02/05 03:00:08;;;;;;;13.82;8.82;;;;;;;2.91;65.66;93878.72;5017935;28;20072;-73
2024/02/05 03:02:34;;;;;;;14.10;10.10;;;;;;;2.78;66.25;93887.13;5014870;28;20518;-72
2024/02/05 03:05:00;;;;;;;13.85;10.05;;;;;;;3.24;65.57;93903.66;5017712;28;20025;-72
2024/02/05 03:07:26;;;;;;;13.65;9.55;;;;;;;2.56;67.19;93885.78;5038329;28;20016;-72
2024/02/05 03:09:52;;;;;;;15.82;10.50;;;;;;;2.33;69.94;93898.38;5041389;28;20051;-72
2024/02/05 03:12:18;;;;;;;16.13;10.68;;;;;;;2.96;66.39;93906.84;5037389;28;20128;-72
2024/02/05 03:14:43;;;;;;;14.15;9.95;;;;;;;2.48;68.62;93919.41;5039797;28;20091;-72
2024/02/05 03:17:09;;;;;;;15.23;10.25;;;;;;;1.87;72.05;93938.59;5038245;28;20041;-72
2024/02/05 03:19:34;;;;;;;16.65;11.07;;;;;;;1.56;73.72;93899.13;5040162;28;20047;-72
2024/02/05 03:22:00;;;;;;;16.15;10.55;;;;;;;2.23;71.24;93908.84;5039335;28;20493;-72
2024/02/05 03:24:26;;;;;;;14.75;9.20;;;;;;;2.47;70.03;93911.78;5037676;28;20041;-72
2024/02/05 03:26:52;;;;;;;14.77;9.65;;;;;;;2.85;68.10;93892.91;5038386;28;20052;-72
2024/02/05 03:29:18;;;;;;;11.35;8.65;;;;;;;2.67;67.56;93876.88;5039917;28;20394;-72
2024/02/05 03:31:43;;;;;;;12.73;8.52;;;;;;;2.51;67.95;93860.31;5038176;28;20036;-72
2024/02/05 03:34:09;;;;;;;14.75;8.73;;;;;;;2.86;65.95;93885.81;5039345;28;20037;-72
2024/02/05 03:36:34;;;;;;;11.75;8.15;;;;;;;2.00;68.65;93862.09;5040257;28;20136;-72
2024/02/05 03:39:00;;;;;;;9.27;6.80;;;;;;;2.46;67.80;93887.34;5039105;28;20048;-72
2024/02/05 03:41:25;;;;;;;12.13;7.68;;;;;;;2.19;67.70;93876.28;5037830;28;20047;-72
2024/02/05 03:43:51;;;;;;;13.40;8.50;;;;;;;1.98;69.03;93898.25;5037878;28;20028;-72
2024/02/05 03:46:16;;;;;;;15.40;9.50;;;;;;;2.24;69.04;93913.03;5038317;28;20087;-72
2024/02/05 03:48:50;;;;;;;12.63;7.95;;;;;;;2.79;66.95;93917.59;5039242;28;20438;-72
2024/02/05 03:51:15;;;;;;;13.57;9.10;;;;;;;2.94;64.88;93901.03;5035822;28;20041;-72
2024/02/05 03:53:40;;;;;;;10.93;8.18;;;;;;;2.81;65.85;93894.47;5037919;28;20498;-72
2024/02/05 03:56:06;;;;;;;12.20;8.65;;;;;;;2.09;67.61;93907.75;5039539;28;20494;-72
2024/02/05 03:58:31;;;;;;;9.38;6.55;;;;;;;2.61;67.08;93918.09;5039257;28;20036;-72
2024/02/05 04:00:57;;;;;;;24.25;8.88;;;;;;;3.18;64.37;93949.41;5039625;28;20118;-72
2024/02/05 04:03:22;;;;;;;12.75;7.93;;;;;;;2.35;66.98;93925.13;5038978;28;20882;-72
2024/02/05 04:05:48;;;;;;;9.20;6.53;;;;;;;2.55;66.63;93936.75;5040100;28;20122;-72
2024/02/05 04:08:14;;;;;;;10.55;6.85;;;;;;;2.30;67.67;93906.78;5037701;28;20080;-72
2024/02/05 04:10:39;;;;;;;10.68;6.95;;;;;;;2.04;68.17;93912.97;5040774;28;20024;-72
2024/02/05 04:13:06;;;;;;;12.10;6.60;;;;;;;2.20;68.49;93967.09;5039304;28;20028;-72
2024/02/05 04:15:32;;;;;;;9.40;6.72;;;;;;;2.28;67.93;93927.22;5039274;28;20041;-71
2024/02/05 04:17:59;;;;;;;10.98;7.47;;;;;;;2.05;67.89;93935.56;5041225;28;20040;-71
2024/02/05 04:20:25;;;;;;;9.13;6.90;;;;;;;2.30;67.36;93919.09;5035133;28;20053;-72
2024/02/05 04:22:50;;;;;;;10.23;7.03;;;;;;;2.32;66.87;93930.91;5038408;28;20059;-71
2024/02/05 04:25:16;;;;;;;8.50;6.38;;;;;;;2.85;65.26;93961.19;5038187;28;20025;-72
2024/02/05 04:27:41;;;;;;;10.57;6.55;;;;;;;2.90;64.66;93952.53;5038701;28;20502;-72
2024/02/05 04:30:07;;;;;;;9.18;5.85;;;;;;;3.40;63.26;93970.94;5039841;28;20098;-72
2024/02/05 04:32:33;;;;;;;9.65;6.75;;;;;;;3.39;61.93;93968.56;5033145;28;20038;-71
2024/02/05 04:34:59;;;;;;;10.25;6.65;;;;;;;3.49;61.90;93967.78;5018548;28;20045;-72
2024/02/05 04:37:26;;;;;;;12.18;6.38;;;;;;;3.06;61.79;93972.53;5038624;28;20505;-71
2024/02/05 04:39:54;;;;;;;8.02;6.18;;;;;;;2.94;64.08;93985.91;5037110;28;20070;-71
2024/02/05 04:42:19;;;;;;;9.63;6.32;;;;;;;3.14;62.61;93973.81;5041227;28;20045;-72
2024/02/05 04:44:44;;;;;;;11.10;6.80;;;;;;;3.62;61.14;93988.28;5038409;28;20501;-72
2024/02/05 04:47:10;;;;;;;11.25;6.15;;;;;;;3.35;60.81;93970.94;5036561;28;20033;-72
2024/02/05 04:49:35;;;;;;;10.20;5.25;;;;;;;3.28;61.51;93973.03;5039024;28;20021;-72
2024/02/05 04:52:01;;;;;;;6.93;4.80;;;;;;;3.52;61.33;93977.78;5037257;28;20033;-72
2024/02/05 04:54:29;;;;;;;10.30;6.15;;;;;;;3.23;61.16;93975.66;5040146;28;20074;-72
2024/02/05 04:56:55;;;;;;;9.00;5.13;;;;;;;3.75;60.29;93974.59;5037461;28;20037;-72
2024/02/05 04:59:21;;;;;;;9.35;5.38;;;;;;;3.45;60.58;93975.41;5035926;28;20555;-72
2024/02/05 05:01:46;;;;;;;7.38;5.28;;;;;;;3.69;60.13;93975.66;5037861;28;20597;-72
2024/02/05 05:04:11;;;;;;;8.45;4.90;;;;;;;3.74;59.30;93968.53;5039303;28;20029;-72
2024/02/05 05:06:37;;;;;;;7.68;6.28;;;;;;;3.77;58.56;93949.56;5038175;28;20116;-72
2024/02/05 05:09:02;;;;;;;7.68;4.72;;;;;;;4.10;58.31;93974.50;5039005;28;20213;-72
2024/02/05 05:11:28;;;;;;;9.00;4.93;;;;;;;3.92;58.17;93987.44;5037610;28;20045;-72
2024/02/05 05:13:53;;;;;;;7.47;4.55;;;;;;;4.07;57.50;93969.75;5017848;28;20464;-72
2024/02/05 05:16:19;;;;;;;9.65;6.13;;;;;;;3.71;57.72;93940.16;5039343;28;20036;-72
2024/02/05 05:18:45;;;;;;;8.25;5.80;;;;;;;3.90;58.13;93998.25;5036103;28;20107;-72
2024/02/05 05:21:12;;;;;;;8.63;6.10;;;;;;;3.48;59.14;93958.34;5038192;28;20378;-72
2024/02/05 05:23:37;;;;;;;8.20;5.75;;;;;;;4.08;58.20;93976.59;5038728;28;20086;-72
2024/02/05 05:26:03;;;;;;;7.72;5.85;;;;;;;4.50;56.28;93993.88;5036764;28;20029;-72
2024/02/05 05:28:30;;;;;;;6.90;5.30;;;;;;;3.99;57.58;93980.84;5038975;28;20308;-72
2024/02/05 05:30:56;;;;;;;8.57;5.95;;;;;;;4.21;56.62;93981.28;5034459;28;20040;-72
2024/02/05 05:33:21;;;;;;;10.90;6.68;;;;;;;4.72;55.42;94006.66;5036274;28;20056;-71
2024/02/05 05:35:47;;;;;;;10.82;6.53;;;;;;;4.56;56.32;94013.84;5035189;28;20047;-72
2024/02/05 05:38:12;;;;;;;11.68;6.90;;;;;;;4.58;55.76;94009.09;5035777;28;20561;-72
2024/02/05 05:40:38;;;;;;;10.55;6.75;;;;;;;4.37;55.87;94026.03;5040327;28;20021;-73
2024/02/05 05:43:03;;;;;;;11.63;6.88;;;;;;;4.42;56.72;94044.44;5035874;28;20044;-72
2024/02/05 05:45:29;;;;;;;11.55;8.38;;;;;;;4.16;56.59;94026.06;5037364;28;20049;-72
2024/02/05 05:47:55;;;;;;;22.58;12.30;;;;;;;4.00;57.20;94042.97;5033379;28;20041;-72
2024/02/05 05:50:21;;;;;;;13.82;7.15;;;;;;;3.32;60.00;94050.34;5027787;28;20042;-72
2024/02/05 05:52:46;;;;;;;9.45;6.45;;;;;;;4.05;58.11;94029.00;5017065;28;20026;-71
2024/02/05 05:55:12;;;;;;;13.02;6.47;;;;;;;4.21;56.93;93989.19;5037944;28;20084;-72
2024/02/05 05:57:38;;;;;;;11.48;7.05;;;;;;;4.76;55.74;94013.75;5039808;28;20057;-72
2024/02/05 06:00:08;;;;;;;7.53;5.90;;;;;;;4.94;54.98;94021.00;5040027;28;20572;-72
2024/02/05 06:02:33;;;;;;;9.48;6.63;;;;;;;4.11;55.73;93999.75;5034834;28;20037;-72
2024/02/05 06:04:59;;;;;;;12.68;6.65;;;;;;;3.82;57.82;94030.34;5035763;28;20040;-72
2024/02/05 06:07:24;;;;;;;14.20;8.05;;;;;;;4.27;56.80;94030.25;5034156;28;20031;-72
2024/02/05 06:09:50;;;;;;;12.60;7.45;;;;;;;3.98;56.93;94023.22;5037545;28;20592;-72
2024/02/05 06:12:16;;;;;;;11.45;6.43;;;;;;;3.17;59.41;94029.31;5024337;28;20147;-72
2024/02/05 06:14:43;;;;;;;9.50;6.70;;;;;;;3.69;58.45;94004.56;5013634;28;20437;-72
2024/02/05 06:17:08;;;;;;;14.07;7.60;;;;;;;3.80;57.45;93995.63;5018609;28;20057;-72
2024/02/05 06:19:34;;;;;;;14.23;8.13;;;;;;;3.81;58.06;94015.63;5043008;28;20055;-72
2024/02/05 06:21:59;;;;;;;12.85;7.47;;;;;;;3.90;57.45;94021.91;5040148;28;20048;-72
2024/02/05 06:24:25;;;;;;;12.45;8.02;;;;;;;4.22;57.04;94021.56;5040124;28;20036;-72
2024/02/05 06:26:50;;;;;;;16.13;7.53;;;;;;;4.33;56.47;94040.78;5041837;28;20029;-72
2024/02/05 06:29:16;;;;;;;12.35;7.97;;;;;;;3.78;57.99;94052.97;5041413;28;20048;-72
2024/02/05 06:31:41;;;;;;;11.32;6.78;;;;;;;3.80;57.89;94021.94;5040812;28;20021;-72
2024/02/05 06:34:07;;;;;;;10.00;6.45;;;;;;;4.03;58.35;94042.41;5042240;28;20044;-72
2024/02/05 06:36:32;;;;;;;9.52;6.72;;;;;;;3.73;58.31;94068.75;5041522;28;20124;-72
2024/02/05 06:38:57;;;;;;;8.07;6.40;;;;;;;4.00;58.21;94077.16;5042347;28;20421;-74
2024/02/05 06:41:23;;;;;;;14.55;7.05;;;;;;;3.76;58.31;94044.56;5039926;28;20119;-72
2024/02/05 06:43:50;;;;;;;15.70;7.85;;;;;;;4.06;57.78;94052.41;5040627;28;20029;-72
2024/02/05 06:46:16;;;;;;;12.25;6.85;;;;;;;4.11;57.69;94033.97;5042386;28;20028;-72
2024/02/05 06:48:41;;;;;;;13.45;6.78;;;;;;;4.42;56.23;94031.28;5042449;28;20051;-72
2024/02/05 06:51:06;;;;;;;9.18;6.45;;;;;;;4.79;55.51;94050.13;5037038;28;20433;-72
2024/02/05 06:53:32;;;;;;;16.13;8.60;;;;;;;4.51;55.48;94037.56;5040173;28;20108;-72
2024/02/05 06:55:57;;;;;;;19.67;10.55;;;;;;;4.33;55.83;94025.78;5041943;28;20661;-72
2024/02/05 06:58:23;;;;;;;12.25;9.07;;;;;;;4.36;56.55;94040.25;5040451;28;20036;-72
2024/02/05 07:00:48;;;;;;;13.10;7.22;;;;;;;4.65;56.40;94014.84;5040101;28;20410;-72
2024/02/05 07:03:14;;;;;;;9.90;6.63;;;;;;;5.03;54.77;94037.84;5025784;28;20065;-72
2024/02/05 07:05:39;;;;;;;11.50;6.80;;;;;;;5.10;54.76;94037.53;5021691;28;20413;-73
2024/02/05 07:08:05;;;;;;;13.77;6.90;;;;;;;5.27;54.03;94030.06;5037965;28;20384;-72
2024/02/05 07:10:31;;;;;;;13.45;7.32;;;;;;;5.49;53.97;94045.44;5018838;28;20022;-72
2024/02/05 07:12:56;;;;;;;14.82;6.50;;;;;;;5.67;53.71;94028.97;5016437;28;20129;-72
2024/02/05 07:15:22;;;;;;;11.95;6.97;;;;;;;5.97;53.67;94044.53;5031674;28;20037;-72
2024/02/05 07:17:48;;;;;;;14.68;7.82;;;;;;;6.23;52.69;94044.31;5038870;28;20036;-73
2024/02/05 07:20:13;;;;;;;16.60;8.07;;;;;;;5.91;52.16;94047.50;5035121;28;20049;-72
2024/02/05 07:22:39;;;;;;;19.13;8.15;;;;;;;5.62;52.99;94026.38;5041726;28;20024;-72
2024/02/05 07:25:05;;;;;;;16.50;8.27;;;;;;;5.31;53.94;94030.28;5038339;28;20033;-72
2024/02/05 07:27:31;;;;;;;12.35;8.65;;;;;;;5.42;53.82;94058.19;5039020;28;20106;-72
2024/02/05 07:29:57;;;;;;;17.23;8.63;;;;;;;5.61;53.33;94045.13;5037419;28;20159;-71
2024/02/05 07:32:23;;;;;;;18.83;7.78;;;;;;;5.76;53.78;94015.97;5039147;28;20032;-73
2024/02/05 07:34:49;;;;;;;15.10;8.65;;;;;;;5.16;53.84;94054.13;5039174;28;20284;-71
2024/02/05 07:37:15;;;;;;;20.90;10.48;;;;;;;5.00;54.59;94051.56;5040935;28;20399;-73
2024/02/05 07:39:40;;;;;;;15.65;8.27;;;;;;;5.32;53.35;94031.88;5039531;28;20037;-73
2024/02/05 07:42:06;;;;;;;17.10;8.98;;;;;;;5.51;53.47;94056.53;5041653;28;20048;-73
2024/02/05 07:44:32;;;;;;;20.58;10.38;;;;;;;5.29;53.34;94043.75;5029359;28;20666;-73
2024/02/05 07:46:57;;;;;;;23.13;10.35;;;;;;;5.58;53.43;94067.53;5016363;28;20033;-73
2024/02/05 07:49:25;;;;;;;18.42;10.15;;;;;;;5.57;53.37;94039.59;5036897;28;20194;-73
2024/02/05 07:51:51;;;;;;;28.27;10.77;;;;;;;5.86;53.04;94043.06;5039976;28;20043;-73
2024/02/05 07:54:17;;;;;;;23.05;10.88;;;;;;;5.89;52.46;94053.06;5038532;28;20037;-72
2024/02/05 07:56:43;;;;;;;23.25;10.88;;;;;;;5.98;52.03;94047.94;5040273;28;20039;-73
2024/02/05 07:59:11;;;;;;;18.00;10.32;;;;;;;6.07;52.41;94038.34;5041523;28;20644;-73
2024/02/05 08:01:38;;;;;;;17.90;10.40;;;;;;;6.10;51.92;94027.25;5030487;28;20028;-72
2024/02/05 08:04:04;;;;;;;23.30;10.98;;;;;;;5.78;52.51;94051.56;5039285;28;20037;-73
2024/02/05 08:06:29;;;;;;;19.65;11.30;;;;;;;5.41;53.29;94040.78;5039686;28;20037;-72
2024/02/05 08:08:56;;;;;;;23.05;11.35;;;;;;;5.32;54.14;94047.69;5037901;28;20040;-73
2024/02/05 08:11:23;;;;;;;20.60;10.75;;;;;;;5.34;53.55;94030.53;5039902;28;20502;-72
2024/02/05 08:13:49;;;;;;;24.25;11.43;;;;;;;5.72;53.36;94026.28;5036851;28;20037;-72
2024/02/05 08:16:15;;;;;;;20.83;10.18;;;;;;;6.22;52.73;94034.81;5039262;28;20033;-72
2024/02/05 08:18:40;;;;;;;20.77;10.77;;;;;;;6.17;52.35;94029.56;5040797;28;22647;-72
2024/02/05 08:21:06;;;;;;;20.95;9.52;;;;;;;6.37;52.15;94053.13;5036613;28;20045;-72
2024/02/05 08:23:31;;;;;;;18.90;10.25;;;;;;;6.56;51.07;94032.84;5039073;28;20037;-73
2024/02/05 08:25:56;;;;;;;25.50;11.43;;;;;;;6.42;51.37;94024.03;5037881;28;20123;-72
2024/02/05 08:28:22;;;;;;;26.90;11.10;;;;;;;6.27;51.36;94026.81;5038612;28;20029;-72
2024/02/05 08:30:47;;;;;;;18.75;10.05;;;;;;;6.55;51.34;94033.94;5021369;28;20056;-72
2024/02/05 08:33:13;;;;;;;35.83;13.65;;;;;;;6.74;51.54;94026.84;5028280;28;20130;-73
2024/02/05 08:35:40;;;;;;;20.58;11.52;;;;;;;6.87;51.17;94030.63;5034153;28;20051;-71
2024/02/05 08:38:06;;;;;;;27.55;11.55;;;;;;;6.41;51.21;94014.53;5036404;28;21528;-72
2024/02/05 08:40:32;;;;;;;22.90;9.52;;;;;;;6.96;50.40;94049.28;5036345;28;20037;-73
2024/02/05 08:42:58;;;;;;;6.85;4.05;;;;;;;6.62;47.98;94023.78;5036040;28;20033;-73
2024/02/05 08:45:24;;;;;;;15.10;7.70;;;;;;;7.05;47.85;94042.28;5019359;28;20064;-72
2024/02/05 08:47:53;;;;;;;25.88;9.27;;;;;;;6.79;49.82;94033.91;5015792;28;20306;-72
2024/02/05 08:50:22;;;;;;;23.70;11.38;;;;;;;6.66;50.00;94032.72;5013034;28;20121;-72
2024/02/05 08:52:48;;;;;;;22.70;12.48;;;;;;;7.09;50.13;94024.78;5015019;28;20545;-72
2024/02/05 08:55:14;;;;;;;15.80;7.40;;;;;;;7.32;46.86;94018.63;5038185;28;20082;-72
2024/02/05 08:57:44;;;;;;;20.00;9.77;;;;;;;7.26;48.31;94020.56;5036155;28;20037;-72
2024/02/05 09:00:10;;;;;;;22.45;10.15;;;;;;;7.83;48.93;94028.44;5034088;28;20479;-72
2024/02/05 09:02:39;;;;;;;15.13;8.38;;;;;;;8.11;46.12;94022.94;5027445;28;20046;-73
2024/02/05 09:05:04;;;;;;;23.10;9.38;;;;;;;8.25;46.29;94030.91;5017968;28;20558;-72
2024/02/05 09:07:30;;;;;;;14.65;8.85;;;;;;;8.25;46.33;94028.25;5036081;28;20025;-72
2024/02/05 09:09:56;;;;;;;21.05;10.40;;;;;;;8.05;47.25;93997.63;5035256;28;20049;-72
2024/02/05 09:12:22;;;;;;;17.60;8.48;;;;;;;8.02;46.87;94008.00;5037455;28;20049;-72
2024/02/05 09:14:48;;;;;;;10.07;5.28;;;;;;;8.39;43.66;93997.25;5026337;28;20556;-72
2024/02/05 09:17:15;;;;;;;3.17;2.40;;;;;;;8.92;38.29;93994.06;5020340;28;20055;-72
2024/02/05 09:19:41;;;;;;;3.20;1.80;;;;;;;9.17;36.63;93971.53;5039439;28;20021;-72
2024/02/05 09:22:06;;;;;;;3.80;1.60;;;;;;;9.61;36.58;93990.13;5035395;28;20041;-72
2024/02/05 09:24:32;;;;;;;2.78;1.60;;;;;;;9.94;35.44;93982.69;5019881;28;20452;-72
2024/02/05 09:26:57;;;;;;;3.47;1.92;;;;;;;10.25;35.38;93993.31;5025993;28;20140;-72
2024/02/05 09:29:23;;;;;;;1.92;1.40;;;;;;;10.36;34.57;93964.59;5033496;28;20039;-72
2024/02/05 09:31:49;;;;;;;3.08;1.67;;;;;;;10.49;34.56;93972.50;5038462;28;20028;-72
2024/02/05 09:34:15;;;;;;;2.70;2.22;;;;;;;10.89;34.12;93983.06;5030335;28;20025;-72
2024/02/05 09:36:40;;;;;;;3.70;1.98;;;;;;;11.10;32.95;93966.19;5039404;28;20560;-72
2024/02/05 09:39:06;;;;;;;2.88;1.23;;;;;;;11.18;33.23;93972.63;5035687;28;20095;-72
2024/02/05 09:41:34;;;;;;;2.20;1.23;;;;;;;11.25;33.53;93940.22;5039154;28;20048;-72
2024/02/05 09:44:00;;;;;;;4.82;1.42;;;;;;;11.50;32.63;93947.38;5036030;28;20421;-73
2024/02/05 09:46:30;;;;;;;3.20;1.27;;;;;;;11.69;32.25;93931.88;5033208;28;20036;-72
2024/02/05 09:48:58;;;;;;;2.03;1.30;;;;;;;11.85;31.89;93962.25;5038742;28;20105;-72
2024/02/05 09:51:27;;;;;;;4.25;1.70;;;;;;;11.58;32.15;93915.47;5036658;28;20041;-72
2024/02/05 09:53:52;;;;;;;2.00;1.08;;;;;;;11.89;31.71;93912.56;5037675;28;20048;-73
2024/02/05 09:56:20;;;;;;;2.50;1.20;;;;;;;12.10;31.72;93959.84;5039513;28;20041;-72
2024/02/05 09:58:46;;;;;;;1.45;1.17;;;;;;;12.10;32.00;93949.97;5041684;28;24569;-71
2024/02/05 10:01:13;;;;;;;2.65;1.42;;;;;;;12.31;31.38;93952.72;5044314;28;20075;-72
2024/02/05 10:03:41;;;;;;;3.30;1.30;;;;;;;12.50;31.03;93937.09;5042308;28;20644;-73
2024/02/05 10:06:11;;;;;;;2.58;1.15;;;;;;;12.55;30.87;93938.81;5044060;28;20033;-72
2024/02/05 10:08:37;;;;;;;2.08;1.10;;;;;;;12.44;31.12;93939.16;5039929;28;20049;-72
2024/02/05 10:11:05;;;;;;;4.35;1.63;;;;;;;12.58;31.12;93938.97;5040443;28;20029;-72
2024/02/05 10:13:32;;;;;;;3.47;1.63;;;;;;;12.61;31.09;93935.69;5043616;28;20037;-72
2024/02/05 10:15:58;;;;;;;1.38;1.10;;;;;;;12.83;30.34;93929.25;5023686;28;20048;-72
2024/02/05 10:18:23;;;;;;;1.65;1.20;;;;;;;12.82;30.44;93944.47;5021460;28;20038;-72
2024/02/05 10:20:49;;;;;;;4.97;1.45;;;;;;;12.87;30.15;93922.94;5030049;28;20041;-72
2024/02/05 10:23:14;;;;;;;1.70;1.10;;;;;;;12.88;30.34;93919.16;5041046;28;20077;-72
2024/02/05 10:25:40;;;;;;;1.77;1.20;;;;;;;12.85;30.42;93922.50;5044129;28;20473;-72
2024/02/05 10:28:06;;;;;;;3.92;1.58;;;;;;;12.87;30.66;93917.59;5043358;28;20037;-72
2024/02/05 10:30:32;;;;;;;3.25;1.30;;;;;;;12.99;29.96;93924.13;5042489;28;20216;-72
2024/02/05 10:33:03;;;;;;;8.32;3.35;;;;;;;13.07;30.44;93908.03;5042403;28;20128;-72
2024/02/05 10:35:28;;;;;;;4.70;1.45;;;;;;;13.10;30.03;93888.72;5041779;28;20144;-72
2024/02/05 10:38:06;;;;;;;5.10;1.67;;;;;;;13.16;30.13;93890.06;5040982;28;20053;-72
2024/02/05 10:40:35;;;;;;;3.63;1.48;;;;;;;13.12;30.53;93870.47;5045316;28;20120;-72
2024/02/05 10:43:04;;;;;;;1.65;1.00;;;;;;;13.25;29.89;93892.69;5039147;28;20504;-72
2024/02/05 10:45:39;;;;;;;1.85;1.00;;;;;;;13.23;30.18;93862.84;5043443;28;20136;-71
2024/02/05 10:48:05;;;;;;;4.05;1.25;;;;;;;13.33;29.95;93873.91;5042839;28;20041;-72
2024/02/05 10:50:31;;;;;;;4.18;1.20;;;;;;;13.30;29.71;93890.56;5043218;28;20559;-72
2024/02/05 10:52:58;;;;;;;2.92;1.40;;;;;;;13.23;29.86;93879.66;5038896;28;20029;-72
2024/02/05 10:55:23;;;;;;;2.90;1.75;;;;;;;13.44;30.34;93895.66;5042385;28;20049;-72
2024/02/05 10:57:52;;;;;;;2.95;1.50;;;;;;;13.52;29.53;93881.41;5043822;28;20124;-72
2024/02/05 11:00:18;;;;;;;4.43;1.05;;;;;;;13.57;29.66;93877.75;5040539;28;20052;-72
2024/02/05 11:02:55;;;;;;;3.67;1.20;;;;;;;13.69;29.46;93891.19;5030454;28;20037;-73
2024/02/05 11:05:22;;;;;;;2.72;1.45;;;;;;;13.48;29.96;93874.38;5021355;28;20052;-72
2024/02/05 11:07:59;;;;;;;2.33;1.30;;;;;;;13.63;29.71;93882.59;5043132;28;20124;-72
2024/02/05 11:10:26;;;;;;;2.65;1.00;;;;;;;13.75;30.47;93879.94;5043383;28;20531;-72
2024/02/05 11:13:02;;;;;;;4.53;1.52;;;;;;;13.89;30.14;93884.19;5021089;28;20063;-72
2024/02/05 11:15:31;;;;;;;2.03;1.20;;;;;;;13.91;29.74;93882.00;5015134;28;20046;-72
2024/02/05 11:17:59;;;;;;;2.38;1.48;;;;;;;13.84;29.34;93865.72;5021044;28;20064;-72
2024/02/05 11:20:26;;;;;;;2.92;1.92;;;;;;;13.79;29.60;93873.97;5026253;28;20087;-72
2024/02/05 11:22:55;;;;;;;3.13;1.33;;;;;;;13.96;29.63;93882.56;5039764;28;20053;-73
2024/02/05 11:25:21;;;;;;;2.33;1.40;;;;;;;13.94;29.66;93859.91;5042195;28;20043;-72
2024/02/05 11:27:47;;;;;;;1.63;1.13;;;;;;;14.12;29.09;93861.31;5041802;28;20086;-72
2024/02/05 11:30:15;;;;;;;1.90;1.33;;;;;;;14.12;29.29;93863.97;5041198;28;20057;-72